createdAt,value
2018-12-04T00:00:08.950Z,1000.28
2018-12-04T00:10:50.524Z,1000.51
2018-12-04T00:11:51.027Z,1000.50
2018-12-04T00:12:51.619Z,1000.54
2018-12-04T00:13:52.127Z,1000.59
2018-12-04T00:14:52.679Z,1000.59
2018-12-04T00:15:53.159Z,1000.64
2018-12-04T00:16:53.698Z,1000.66
2018-12-04T00:17:54.228Z,1000.68
2018-12-04T00:18:54.989Z,1000.74
2018-12-04T00:19:55.497Z,1000.72
2018-12-04T00:20:56.092Z,1000.78
2018-12-04T00:21:56.582Z,1000.84
2018-12-04T00:22:57.089Z,1000.90
2018-12-04T00:23:57.601Z,1000.90
2018-12-04T00:53:52.095Z,1001.71
2018-12-04T00:54:52.597Z,1001.73
2018-12-04T00:55:55.017Z,1001.79
2018-12-04T00:56:57.013Z,1001.83
2018-12-04T00:57:58.512Z,1001.89
2018-12-04T00:58:59.012Z,1001.94
2018-12-04T00:59:59.520Z,1001.94
2018-12-04T01:01:00.030Z,1001.98
2018-12-04T01:02:00.532Z,1002.00
2018-12-04T01:03:01.037Z,1002.02
2018-12-04T01:04:01.547Z,1002.04
2018-12-04T01:05:02.043Z,1002.05
2018-12-04T01:10:55.216Z,1002.21
2018-12-04T01:11:55.718Z,1002.29
2018-12-04T01:14:49.814Z,1002.37
2018-12-04T01:27:40.606Z,1002.96
2018-12-04T01:28:41.105Z,1002.99
2018-12-04T01:29:41.682Z,1003.02
2018-12-04T01:30:42.165Z,1003.09
2018-12-04T01:31:42.724Z,1003.10
2018-12-04T01:32:43.231Z,1003.12
2018-12-04T01:33:43.755Z,1003.19
2018-12-04T01:34:44.685Z,1003.19
2018-12-04T01:35:45.216Z,1003.19
2018-12-04T01:36:45.727Z,1003.24
2018-12-04T01:37:47.259Z,1003.28
2018-12-04T01:38:47.790Z,1003.28
2018-12-04T01:39:48.297Z,1003.29
2018-12-04T01:40:48.797Z,1003.28
2018-12-04T01:41:49.429Z,1003.32
2018-12-04T01:42:50.073Z,1003.30
2018-12-04T01:43:52.175Z,1003.29
2018-12-04T01:44:52.763Z,1003.31
2018-12-04T01:45:53.877Z,1003.38
2018-12-04T01:46:54.447Z,1003.34
2018-12-04T01:47:55.044Z,1003.37
2018-12-04T01:48:55.617Z,1003.44
2018-12-04T01:49:56.567Z,1003.49
2018-12-04T01:50:57.072Z,1003.51
2018-12-04T01:51:57.805Z,1003.55
2018-12-04T01:52:58.713Z,1003.60
2018-12-04T01:53:59.662Z,1003.62
2018-12-04T01:55:00.953Z,1003.65
2018-12-04T01:56:01.562Z,1003.72
2018-12-04T01:57:02.343Z,1003.70
2018-12-04T01:58:03.310Z,1003.71
2018-12-04T01:59:04.188Z,1003.73
2018-12-04T02:00:04.731Z,1003.77
2018-12-04T02:01:05.634Z,1003.71
2018-12-04T02:02:06.146Z,1003.69
2018-12-04T02:03:07.612Z,1003.74
2018-12-04T02:04:08.194Z,1003.73
2018-12-04T02:05:08.848Z,1003.75
2018-12-04T02:06:09.949Z,1003.73
2018-12-04T02:07:11.240Z,1003.81
2018-12-04T02:08:12.351Z,1003.86
2018-12-04T02:09:13.525Z,1003.94
2018-12-04T02:19:17.156Z,1004.13
2018-12-04T02:20:18.087Z,1004.17
2018-12-04T02:21:19.183Z,1004.16
2018-12-04T02:22:20.042Z,1004.17
2018-12-04T02:23:20.775Z,1004.21
2018-12-04T02:24:21.813Z,1004.24
2018-12-04T02:25:22.786Z,1004.26
2018-12-04T02:26:23.623Z,1004.27
2018-12-04T02:27:24.339Z,1004.26
2018-12-04T02:28:24.961Z,1004.29
2018-12-04T02:29:27.837Z,1004.28
2018-12-04T02:30:29.225Z,1004.32
2018-12-04T02:31:30.117Z,1004.34
2018-12-04T02:32:31.183Z,1004.42
2018-12-04T02:33:39.731Z,1004.45
2018-12-04T02:34:40.722Z,1004.47
2018-12-04T02:35:41.904Z,1004.45
2018-12-04T02:36:43.080Z,1004.48
2018-12-04T02:37:44.067Z,1004.56
2018-12-04T02:38:44.841Z,1004.58
2018-12-04T02:39:52.702Z,1004.57
2018-12-04T02:40:54.035Z,1004.59
2018-12-04T02:41:55.047Z,1004.68
2018-12-04T02:42:55.948Z,1004.69
2018-12-04T02:43:56.911Z,1004.74
2018-12-04T02:44:57.989Z,1004.74
2018-12-04T02:45:59.096Z,1004.80
2018-12-04T02:50:28.102Z,1004.82
2018-12-04T02:51:28.693Z,1004.86
2018-12-04T03:12:36.953Z,1005.19
2018-12-04T03:13:37.746Z,1005.24
2018-12-04T03:16:32.355Z,1005.26
2018-12-04T03:17:33.066Z,1005.24
2018-12-04T03:18:33.878Z,1005.26
2018-12-04T03:19:34.504Z,1005.28
2018-12-04T03:20:35.608Z,1005.23
2018-12-04T03:21:37.413Z,1005.28
2018-12-04T03:22:38.299Z,1005.34
2018-12-04T03:23:39.459Z,1005.31
2018-12-04T03:24:40.080Z,1005.36
2018-12-04T03:25:40.659Z,1005.41
2018-12-04T03:26:41.518Z,1005.41
2018-12-04T03:27:42.669Z,1005.47
2018-12-04T03:28:43.883Z,1005.50
2018-12-04T03:29:44.633Z,1005.53
2018-12-04T03:30:45.739Z,1005.59
2018-12-04T03:31:46.286Z,1005.57
2018-12-04T03:32:47.094Z,1005.58
2018-12-04T03:33:50.952Z,1005.61
2018-12-04T03:34:53.463Z,1005.62
2018-12-04T03:35:54.081Z,1005.61
2018-12-04T03:36:54.622Z,1005.59
2018-12-04T03:37:55.276Z,1005.63
2018-12-04T03:38:57.377Z,1005.64
2018-12-04T03:39:58.186Z,1005.67
2018-12-04T03:41:07.020Z,1005.69
2018-12-04T03:42:08.142Z,1005.70
2018-12-04T03:43:09.148Z,1005.76
2018-12-04T04:03:09.951Z,1006.00
2018-12-04T04:04:46.479Z,1006.01
2018-12-04T04:05:47.143Z,1006.03
2018-12-04T04:39:20.464Z,1006.76
2018-12-04T04:40:23.566Z,1006.79
2018-12-04T04:43:18.387Z,1006.82
2018-12-04T04:44:19.036Z,1006.86
2018-12-04T04:45:21.756Z,1006.91
2018-12-04T04:46:22.455Z,1006.95
2018-12-04T04:47:24.609Z,1006.96
2018-12-04T04:48:25.413Z,1006.97
2018-12-04T04:49:26.078Z,1007.02
2018-12-04T04:50:26.985Z,1007.02
2018-12-04T04:51:27.650Z,1007.07
2018-12-04T04:52:28.413Z,1007.06
2018-12-04T04:53:29.021Z,1007.14
2018-12-04T04:54:31.053Z,1007.15
2018-12-04T04:55:31.854Z,1007.12
2018-12-04T04:56:32.773Z,1007.16
2018-12-04T04:57:33.669Z,1007.18
2018-12-04T04:58:41.210Z,1007.16
2018-12-04T04:59:42.110Z,1007.18
2018-12-04T05:00:43.225Z,1007.16
2018-12-04T05:01:44.292Z,1007.18
2018-12-04T05:02:45.000Z,1007.22
2018-12-04T05:03:45.963Z,1007.23
2018-12-04T05:04:46.673Z,1007.23
2018-12-04T05:05:47.614Z,1007.29
2018-12-04T05:06:48.253Z,1007.31
2018-12-04T05:07:49.266Z,1007.31
2018-12-04T05:08:49.969Z,1007.31
2018-12-04T05:09:50.696Z,1007.32
2018-12-04T05:10:52.840Z,1007.35
2018-12-04T05:11:53.832Z,1007.39
2018-12-04T05:13:01.205Z,1007.41
2018-12-04T05:14:01.846Z,1007.42
2018-12-04T05:16:42.881Z,1007.44
2018-12-04T05:17:52.179Z,1007.50
2018-12-04T05:18:52.839Z,1007.50
2018-12-04T05:19:55.577Z,1007.56
2018-12-04T05:20:56.249Z,1007.57
2018-12-04T05:22:04.694Z,1007.59
2018-12-04T05:23:05.402Z,1007.66
2018-12-04T05:24:08.092Z,1007.69
2018-12-04T05:25:08.772Z,1007.72
2018-12-04T05:26:09.439Z,1007.76
2018-12-04T05:27:10.156Z,1007.77
2018-12-04T05:28:10.864Z,1007.77
2018-12-04T05:29:11.663Z,1007.81
2018-12-04T05:30:12.288Z,1007.81
2018-12-04T05:31:12.979Z,1007.78
2018-12-04T05:32:13.738Z,1007.84
2018-12-04T05:33:14.461Z,1007.86
2018-12-04T05:34:15.137Z,1007.88
2018-12-04T05:35:15.962Z,1007.91
2018-12-04T05:36:17.100Z,1007.92
2018-12-04T05:37:17.894Z,1007.95
2018-12-04T05:38:18.638Z,1007.98
2018-12-04T05:39:19.326Z,1007.99
2018-12-04T05:40:21.113Z,1008.02
2018-12-04T05:41:21.822Z,1008.06
2018-12-04T05:42:30.280Z,1008.10
2018-12-04T05:43:30.902Z,1008.07
2018-12-04T05:44:52.611Z,1008.11
2018-12-04T05:45:53.270Z,1008.10
2018-12-04T05:46:54.001Z,1008.13
2018-12-04T05:47:54.660Z,1008.14
2018-12-04T07:55:40.494Z,1011.11
2018-12-04T07:56:41.317Z,1011.16
2018-12-04T07:57:42.239Z,1011.21
2018-12-04T07:58:43.450Z,1011.22
2018-12-04T07:59:44.116Z,1011.26
2018-12-04T08:00:44.773Z,1011.31
2018-12-04T08:01:47.513Z,1011.32
2018-12-04T08:02:48.213Z,1011.30
2018-12-04T08:03:48.848Z,1011.31
2018-12-04T08:04:49.517Z,1011.32
2018-12-04T08:05:59.097Z,1011.28
2018-12-04T08:06:59.765Z,1011.32
2018-12-04T08:08:00.484Z,1011.39
2018-12-04T08:09:01.266Z,1011.37
2018-12-04T08:10:01.941Z,1011.42
2018-12-04T08:11:02.608Z,1011.45
2018-12-04T08:12:03.356Z,1011.54
2018-12-04T08:13:04.354Z,1011.54
2018-12-04T08:14:05.046Z,1011.53
2018-12-04T08:15:05.708Z,1011.58
2018-12-04T08:16:06.442Z,1011.61
2018-12-04T08:17:07.113Z,1011.67
2018-12-04T08:18:07.880Z,1011.70
2018-12-04T08:19:08.558Z,1011.72
2018-12-04T08:20:09.219Z,1011.77
2018-12-04T08:21:09.884Z,1011.78
2018-12-04T08:22:10.564Z,1011.82
2018-12-04T08:23:11.232Z,1011.87
2018-12-04T08:24:12.015Z,1011.87
2018-12-04T08:25:12.681Z,1011.88
2018-12-04T08:26:13.353Z,1011.90
2018-12-04T08:27:14.086Z,1011.90
2018-12-04T08:28:14.776Z,1011.96
2018-12-04T08:29:15.528Z,1012.00
2018-12-04T08:30:16.195Z,1012.02
2018-12-04T08:31:16.882Z,1012.09
2018-12-04T08:32:17.545Z,1012.12
2018-12-04T08:33:18.210Z,1012.15
2018-12-04T08:34:18.913Z,1012.18
2018-12-04T08:35:19.617Z,1012.24
2018-12-04T08:36:20.301Z,1012.22
2018-12-04T08:37:20.973Z,1012.23
2018-12-04T08:38:21.779Z,1012.21
2018-12-04T08:39:22.801Z,1012.24
2018-12-04T08:40:23.482Z,1012.22
2018-12-04T08:41:24.156Z,1012.23
2018-12-04T08:42:24.873Z,1012.22
2018-12-04T08:43:25.532Z,1012.25
2018-12-04T08:44:26.200Z,1012.24
2018-12-04T08:45:26.845Z,1012.26
2018-12-04T08:46:27.517Z,1012.28
2018-12-04T08:47:28.224Z,1012.30
2018-12-04T08:48:28.866Z,1012.31
2018-12-04T08:49:29.535Z,1012.31
2018-12-04T08:50:30.208Z,1012.33
2018-12-04T08:51:30.937Z,1012.40
2018-12-04T08:52:31.610Z,1012.38
2018-12-04T08:53:32.277Z,1012.45
2018-12-04T08:54:32.962Z,1012.42
2018-12-04T08:55:33.636Z,1012.41
2018-12-04T08:56:34.308Z,1012.44
2018-12-04T08:57:35.029Z,1012.51
2018-12-04T08:58:35.709Z,1012.48
2018-12-04T08:59:36.389Z,1012.58
2018-12-04T09:00:37.070Z,1012.57
2018-12-04T09:01:37.754Z,1012.58
2018-12-04T09:02:38.491Z,1012.68
2018-12-04T09:03:39.152Z,1012.69
2018-12-04T09:04:40.977Z,1012.71
2018-12-04T09:05:41.697Z,1012.76
2018-12-04T10:08:17.088Z,1013.87
2018-12-04T10:09:17.737Z,1013.98
2018-12-04T10:10:18.636Z,1013.98
2018-12-04T10:11:19.254Z,1014.01
2018-12-04T10:12:21.068Z,1013.99
2018-12-04T10:13:21.736Z,1014.03
2018-12-04T10:14:22.520Z,1014.04
2018-12-04T10:15:23.184Z,1014.05
2018-12-04T10:16:23.877Z,1014.06
2018-12-04T10:17:24.560Z,1014.09
2018-12-04T10:18:25.296Z,1014.07
2018-12-04T10:19:25.931Z,1014.11
2018-12-04T10:20:26.612Z,1014.09
2018-12-04T10:21:27.372Z,1014.11
2018-12-04T10:22:28.036Z,1014.07
2018-12-04T10:23:28.797Z,1014.09
2018-12-04T10:24:29.447Z,1014.07
2018-12-04T10:25:30.260Z,1014.07
2018-12-04T10:26:31.180Z,1014.09
2018-12-04T10:27:39.058Z,1014.09
2018-12-04T10:28:40.170Z,1014.05
2018-12-04T10:29:41.257Z,1014.10
2018-12-04T10:30:41.715Z,1014.10
2018-12-04T10:35:16.814Z,1014.28
2018-12-04T10:36:17.463Z,1014.34
2018-12-04T10:37:18.155Z,1014.33
2018-12-04T10:38:20.425Z,1014.34
2018-12-04T10:39:23.184Z,1014.37
2018-12-04T10:40:23.808Z,1014.38
2018-12-04T10:41:41.650Z,1014.36
2018-12-04T10:42:42.358Z,1014.36
2018-12-04T11:06:37.012Z,1014.73
2018-12-04T11:07:37.663Z,1014.81
2018-12-04T11:08:38.501Z,1014.85
2018-12-04T11:09:39.174Z,1014.85
2018-12-04T11:10:39.976Z,1014.86
2018-12-04T11:11:40.659Z,1014.90
2018-12-04T11:12:49.141Z,1014.95
2018-12-04T11:13:49.955Z,1015.02
2018-12-04T11:14:50.707Z,1015.01
2018-12-04T11:15:51.365Z,1014.97
2018-12-04T11:17:01.105Z,1014.99
2018-12-04T11:18:01.812Z,1014.97
2018-12-04T11:19:09.046Z,1014.95
2018-12-04T11:20:09.744Z,1014.97
2018-12-04T11:21:12.462Z,1015.02
2018-12-04T11:22:13.147Z,1014.97
2018-12-04T11:23:21.570Z,1014.92
2018-12-04T11:24:22.281Z,1014.92
2018-12-04T11:25:24.062Z,1015.00
2018-12-04T11:26:24.743Z,1015.07
2018-12-04T11:27:32.040Z,1015.08
2018-12-04T11:28:32.718Z,1015.09
2018-12-04T11:29:40.041Z,1015.10
2018-12-04T11:30:40.707Z,1015.02
2018-12-04T11:31:48.044Z,1015.02
2018-12-04T11:32:48.732Z,1015.02
2018-12-04T11:33:50.532Z,1015.04
2018-12-04T11:34:51.274Z,1015.14
2018-12-04T11:35:52.034Z,1015.23
2018-12-04T11:36:52.724Z,1015.31
2018-12-04T11:37:55.483Z,1015.40
2018-12-04T11:38:56.178Z,1015.35
2018-12-04T11:39:56.883Z,1015.31
2018-12-04T11:40:58.720Z,1015.37
2018-12-04T11:41:59.348Z,1015.36
2018-12-04T11:43:15.091Z,1015.40
2018-12-04T11:44:15.759Z,1015.41
2018-12-04T11:45:16.499Z,1015.41
2018-12-04T11:46:17.198Z,1015.35
2018-12-04T11:47:18.006Z,1015.37
2018-12-04T11:48:18.672Z,1015.36
2018-12-04T11:49:19.866Z,1015.26
2018-12-04T11:50:20.805Z,1015.23
2018-12-04T11:51:22.800Z,1015.20
2018-12-04T11:52:23.933Z,1015.17
2018-12-04T11:53:24.690Z,1015.21
2018-12-04T11:54:26.387Z,1015.24
2018-12-04T11:55:27.105Z,1015.21
2018-12-04T11:56:27.859Z,1015.20
2018-12-04T11:57:28.535Z,1015.19
2018-12-04T11:58:29.294Z,1015.20
2018-12-04T11:59:29.969Z,1015.19
2018-12-04T12:00:32.803Z,1015.20
2018-12-04T12:01:33.458Z,1015.19
2018-12-04T12:02:34.168Z,1015.21
2018-12-04T12:03:35.998Z,1015.23
2018-12-04T12:04:36.672Z,1015.25
2018-12-04T12:05:37.460Z,1015.28
2018-12-04T12:06:38.156Z,1015.30
2018-12-04T12:07:40.932Z,1015.31
2018-12-04T12:08:41.671Z,1015.32
2018-12-04T12:09:42.368Z,1015.34
2018-12-04T12:10:43.073Z,1015.30
2018-12-04T12:11:43.824Z,1015.36
2018-12-04T12:13:20.122Z,1015.40
2018-12-04T12:14:20.796Z,1015.42
2018-12-04T12:15:28.100Z,1015.45
2018-12-04T12:16:28.823Z,1015.52
2018-12-04T12:17:37.094Z,1015.60
2018-12-04T12:18:37.786Z,1015.60
2018-12-04T12:19:59.506Z,1015.59
2018-12-04T12:21:00.266Z,1015.61
2018-12-04T13:11:06.653Z,1015.96
2018-12-04T13:19:21.342Z,1015.99
2018-12-04T13:20:24.341Z,1016.00
2018-12-04T13:21:25.167Z,1015.99
2018-12-04T13:22:33.813Z,1015.99
2018-12-04T13:23:34.531Z,1015.97
2018-12-04T13:24:37.306Z,1015.99
2018-12-04T13:25:38.057Z,1015.99
2018-12-04T13:26:39.991Z,1016.03
2018-12-04T13:27:40.445Z,1016.06
2018-12-04T13:28:41.236Z,1016.02
2018-12-04T13:29:41.935Z,1016.09
2018-12-04T13:30:51.388Z,1016.05
2018-12-04T13:31:52.089Z,1016.10
2018-12-04T13:32:52.846Z,1016.10
2018-12-04T13:33:53.546Z,1016.11
2018-12-04T13:34:54.295Z,1016.12
2018-12-04T13:35:54.995Z,1016.15
2018-12-04T13:36:56.780Z,1016.18
2018-12-04T13:37:57.451Z,1016.24
2018-12-04T13:39:00.281Z,1016.22
2018-12-04T13:40:00.927Z,1016.23
2018-12-04T13:41:02.740Z,1016.23
2018-12-04T13:42:03.396Z,1016.29
2018-12-04T13:43:04.085Z,1016.32
2018-12-04T13:44:06.852Z,1016.38
2018-12-04T13:45:07.564Z,1016.42
2018-12-04T13:46:08.298Z,1016.40
2018-12-04T13:47:08.999Z,1016.40
2018-12-04T13:48:10.820Z,1016.45
2018-12-04T13:49:11.783Z,1016.44
2018-12-04T13:50:14.640Z,1016.46
2018-12-04T13:51:15.296Z,1016.48
2018-12-04T13:52:17.107Z,1016.52
2018-12-04T13:53:17.938Z,1016.55
2018-12-04T13:54:19.764Z,1016.51
2018-12-04T13:55:20.472Z,1016.64
2018-12-04T13:56:23.329Z,1016.60
2018-12-04T13:57:23.952Z,1016.61
2018-12-04T13:58:25.827Z,1016.64
2018-12-04T13:59:26.535Z,1016.62
2018-12-04T14:00:27.374Z,1016.64
2018-12-04T14:01:28.065Z,1016.64
2018-12-04T14:02:28.928Z,1016.66
2018-12-04T14:03:29.643Z,1016.62
2018-12-04T14:04:32.575Z,1016.70
2018-12-04T14:05:33.242Z,1016.74
2018-12-04T14:06:35.147Z,1016.76
2018-12-04T14:07:35.845Z,1016.78
2018-12-04T14:08:44.445Z,1016.81
2018-12-04T14:09:45.137Z,1016.82
2018-12-04T14:10:54.005Z,1016.83
2018-12-04T14:11:54.683Z,1016.85
2018-12-04T14:12:55.510Z,1016.85
2018-12-04T14:13:56.223Z,1016.92
2018-12-04T14:15:12.978Z,1016.91
2018-12-04T14:16:13.697Z,1016.90
2018-12-04T14:17:15.560Z,1016.90
2018-12-04T14:18:16.237Z,1016.97
2018-12-04T14:19:24.974Z,1016.95
2018-12-04T14:20:25.662Z,1017.04
2018-12-04T14:21:27.438Z,1017.05
2018-12-04T14:22:28.101Z,1017.05
2018-12-04T14:23:29.053Z,1017.11
2018-12-04T14:24:29.741Z,1017.13
2018-12-04T14:25:32.842Z,1017.13
2018-12-04T14:26:33.555Z,1017.14
2018-12-04T14:27:36.628Z,1017.17
2018-12-04T14:28:37.318Z,1017.20
2018-12-04T14:29:38.128Z,1017.26
2018-12-04T14:30:38.821Z,1017.19
2018-12-04T14:31:39.688Z,1017.24
2018-12-04T14:32:40.402Z,1017.27
2018-12-04T14:33:49.105Z,1017.30
2018-12-04T14:34:49.725Z,1017.31
2018-12-04T14:35:50.560Z,1017.31
2018-12-04T14:36:51.217Z,1017.35
2018-12-04T14:37:52.139Z,1017.42
2018-12-04T14:38:52.834Z,1017.39
2018-12-04T14:39:53.479Z,1017.39
2018-12-04T14:40:55.288Z,1017.46
2018-12-04T14:41:55.992Z,1017.45
2018-12-04T14:43:11.495Z,1017.48
2018-12-04T14:44:12.200Z,1017.43
2018-12-04T14:45:15.150Z,1017.43
2018-12-04T14:46:15.833Z,1017.41
2018-12-04T14:47:16.641Z,1017.46
2018-12-04T14:48:17.326Z,1017.47
2018-12-04T14:49:19.212Z,1017.45
2018-12-04T14:50:19.878Z,1017.47
2018-12-04T14:51:21.665Z,1017.51
2018-12-04T14:52:22.396Z,1017.49
2018-12-04T14:53:31.864Z,1017.49
2018-12-04T14:54:32.516Z,1017.54
2018-12-04T14:55:33.370Z,1017.56
2018-12-04T14:56:34.085Z,1017.56
2018-12-04T14:57:35.022Z,1017.59
2018-12-04T14:58:35.793Z,1017.61
2018-12-04T14:59:37.991Z,1017.59
2018-12-04T15:00:38.673Z,1017.65
2018-12-04T15:01:39.548Z,1017.57
2018-12-04T15:02:40.233Z,1017.63
2018-12-04T15:03:42.128Z,1017.65
2018-12-04T15:04:42.796Z,1017.65
2018-12-04T15:06:05.745Z,1017.70
2018-12-04T15:07:06.366Z,1017.67
2018-12-04T15:08:07.238Z,1017.69
2018-12-04T15:09:07.913Z,1017.68
2018-12-04T15:10:09.286Z,1017.67
2018-12-04T15:11:09.504Z,1017.68
2018-12-04T15:12:10.328Z,1017.67
2018-12-04T15:13:11.084Z,1017.64
2018-12-04T15:14:11.901Z,1017.72
2018-12-04T15:15:12.589Z,1017.74
2018-12-04T15:16:13.337Z,1017.80
2018-12-04T15:17:14.010Z,1017.81
2018-12-04T15:18:14.894Z,1017.83
2018-12-04T15:19:15.581Z,1017.84
2018-12-04T15:20:16.454Z,1017.89
2018-12-04T15:21:17.141Z,1017.90
2018-12-04T15:22:17.808Z,1017.89
2018-12-04T15:23:18.498Z,1017.91
2018-12-04T15:24:19.385Z,1017.97
2018-12-04T15:25:20.005Z,1017.97
2018-12-04T15:26:20.927Z,1018.00
2018-12-04T15:27:21.561Z,1018.01
2018-12-04T15:28:22.232Z,1018.03
2018-12-04T15:29:23.069Z,1018.05
2018-12-04T15:30:23.723Z,1018.05
2018-12-04T15:31:25.637Z,1018.01
2018-12-04T15:32:26.292Z,1018.07
2018-12-04T15:33:29.115Z,1018.05
2018-12-04T15:34:29.796Z,1018.09
2018-12-04T15:35:30.944Z,1018.12
2018-12-04T15:36:31.663Z,1018.11
2018-12-04T15:37:32.416Z,1018.11
2018-12-04T15:38:33.159Z,1018.11
2018-12-04T15:39:34.048Z,1018.12
2018-12-04T15:40:34.657Z,1018.12
2018-12-04T15:41:36.574Z,1018.15
2018-12-04T15:42:37.265Z,1018.13
2018-12-04T15:43:37.979Z,1018.11
2018-12-04T15:44:38.616Z,1018.11
2018-12-04T15:45:39.297Z,1018.15
2018-12-04T15:46:42.006Z,1018.17
2018-12-04T15:47:42.713Z,1018.24
2018-12-04T15:48:43.481Z,1018.30
2018-12-04T15:49:44.187Z,1018.27
2018-12-04T15:50:45.009Z,1018.23
2018-12-04T15:51:45.675Z,1018.24
2018-12-04T15:52:46.507Z,1018.26
2018-12-04T15:53:47.173Z,1018.27
2018-12-04T15:54:47.902Z,1018.33
2018-12-04T15:55:48.542Z,1018.33
2018-12-04T15:56:49.203Z,1018.37
2018-12-04T15:57:49.873Z,1018.41
2018-12-04T15:58:50.719Z,1018.45
2018-12-04T15:59:51.409Z,1018.42
2018-12-04T16:00:52.131Z,1018.43
2018-12-04T16:01:52.873Z,1018.36
2018-12-04T16:02:53.554Z,1018.43
2018-12-04T16:03:54.383Z,1018.42
2018-12-04T16:04:55.011Z,1018.44
2018-12-04T16:06:11.462Z,1018.44
2018-12-04T16:07:12.105Z,1018.52
2018-12-04T16:08:42.885Z,1018.52
2018-12-04T16:25:25.503Z,1018.56
2018-12-04T16:26:26.272Z,1018.59
2018-12-04T16:29:21.772Z,1018.62
2018-12-04T16:30:22.469Z,1018.60
2018-12-04T16:31:23.172Z,1018.64
2018-12-04T16:32:23.899Z,1018.67
2018-12-04T16:33:24.656Z,1018.61
2018-12-04T16:34:25.345Z,1018.66
2018-12-04T16:35:27.129Z,1018.68
2018-12-04T16:36:27.764Z,1018.69
2018-12-04T16:37:28.307Z,1018.72
2018-12-04T16:38:28.969Z,1018.71
2018-12-04T16:39:30.781Z,1018.74
2018-12-04T16:40:31.459Z,1018.68
2018-12-04T16:41:32.275Z,1018.70
2018-12-04T16:42:32.925Z,1018.70
2018-12-04T16:43:34.700Z,1018.74
2018-12-04T16:44:35.379Z,1018.73
2018-12-04T16:45:38.132Z,1018.71
2018-12-04T16:46:38.766Z,1018.76
2018-12-04T16:47:39.556Z,1018.74
2018-12-04T16:48:40.255Z,1018.74
2018-12-04T16:49:43.060Z,1018.81
2018-12-04T16:50:43.724Z,1018.80
2018-12-04T16:51:44.527Z,1018.76
2018-12-04T16:52:45.171Z,1018.81
2018-12-04T16:53:45.838Z,1018.83
2018-12-04T16:54:46.548Z,1018.85
2018-12-04T16:55:47.241Z,1018.87
2018-12-04T16:56:48.018Z,1018.85
2018-12-04T16:57:48.695Z,1018.87
2018-12-04T16:58:49.463Z,1018.87
2018-12-04T16:59:50.139Z,1018.88
2018-12-04T17:00:50.824Z,1018.89
2018-12-04T17:01:51.471Z,1018.88
2018-12-04T17:02:52.153Z,1018.91
2018-12-04T17:03:52.814Z,1018.94
2018-12-04T17:04:53.504Z,1018.94
2018-12-04T17:05:54.170Z,1018.92
2018-12-04T17:06:57.005Z,1018.94
2018-12-04T17:07:57.659Z,1018.94
2018-12-04T17:08:58.442Z,1018.93
2018-12-04T17:09:59.142Z,1018.99
2018-12-04T17:10:59.886Z,1018.96
2018-12-04T17:12:00.545Z,1018.96
2018-12-04T17:13:01.206Z,1018.93
2018-12-04T17:14:01.887Z,1018.91
2018-12-04T17:15:02.679Z,1018.87
2018-12-04T17:16:03.349Z,1018.87
2018-12-04T17:17:04.750Z,1018.91
2018-12-04T17:18:04.677Z,1018.92
2018-12-04T17:19:05.367Z,1018.88
2018-12-04T17:20:06.034Z,1018.91
2018-12-04T17:21:06.797Z,1018.95
2018-12-04T17:22:07.498Z,1018.95
2018-12-04T17:23:08.281Z,1018.90
2018-12-04T17:24:08.916Z,1018.95
2018-12-04T17:25:09.722Z,1018.93
2018-12-04T17:26:10.387Z,1018.98
2018-12-04T17:27:18.963Z,1018.97
2018-12-04T17:28:19.608Z,1018.94
2018-12-04T17:29:20.356Z,1018.99
2018-12-04T17:30:21.039Z,1019.04
2018-12-04T17:31:22.832Z,1019.03
2018-12-04T17:32:23.533Z,1019.02
2018-12-04T17:33:25.299Z,1019.05
2018-12-04T17:34:25.967Z,1019.04
2018-12-04T17:35:26.742Z,1019.03
2018-12-04T17:36:27.422Z,1019.03
2018-12-04T17:37:30.178Z,1019.07
2018-12-04T17:38:30.817Z,1019.08
2018-12-04T17:39:32.632Z,1019.06
2018-12-04T17:40:33.325Z,1019.11
2018-12-04T17:41:35.091Z,1019.11
2018-12-04T17:42:35.779Z,1019.19
2018-12-04T17:43:37.749Z,1019.15
2018-12-04T17:44:40.334Z,1019.16
